Time;durP1;ratioP1;P1;durP2;ratioP2;P2;SDS_P1;SDS_P2;PMS_P1;PMS_P2;Temp;Humidity;BMP_temperature;BMP_pressure;BME280_temperature;BME280_humidity;BME280_pressure;Samples;Min_cycle;Max_cycle;Signal;HPM_P1;HPM_P2
2023/07/01 00:01:34;;;;;;;4.70;3.50;;;15.40;80.70;;;;;;900652;155;27522;-71
2023/07/01 00:04:01;;;;;;;3.73;3.43;;;15.30;81.50;;;;;;898164;155;27413;-71
2023/07/01 00:06:27;;;;;;;5.23;3.87;;;15.30;81.80;;;;;;896836;155;27431;-71
2023/07/01 00:08:54;;;;;;;3.93;3.47;;;15.30;82.40;;;;;;901079;155;27406;-71
2023/07/01 00:11:20;;;;;;;3.50;3.23;;;15.30;82.90;;;;;;898016;156;27377;-71
2023/07/01 00:13:47;;;;;;;3.77;3.47;;;15.30;83.20;;;;;;899258;155;27408;-71
2023/07/01 00:16:13;;;;;;;5.47;3.47;;;15.30;83.60;;;;;;899333;155;27307;-71
2023/07/01 00:18:40;;;;;;;3.87;3.57;;;15.20;84.00;;;;;;898515;155;27400;-71
2023/07/01 00:21:07;;;;;;;4.57;4.27;;;15.20;84.50;;;;;;897875;155;27415;-71
2023/07/01 00:23:33;;;;;;;4.40;4.00;;;15.20;84.90;;;;;;897943;155;27379;-71
2023/07/01 00:26:00;;;;;;;3.73;3.43;;;15.20;85.90;;;;;;897628;155;27378;-71
2023/07/01 00:28:26;;;;;;;4.23;3.83;;;15.10;85.30;;;;;;898426;158;27384;-71
2023/07/01 00:30:53;;;;;;;4.13;3.80;;;15.20;85.70;;;;;;898556;155;27521;-71
2023/07/01 00:33:20;;;;;;;4.53;4.13;;;15.10;86.20;;;;;;899820;155;27394;-75
2023/07/01 00:35:46;;;;;;;3.93;3.63;;;15.10;86.60;;;;;;898556;155;27460;-76
2023/07/01 00:38:13;;;;;;;4.13;3.73;;;15.10;87.00;;;;;;898192;155;27419;-76
2023/07/01 00:40:39;;;;;;;3.60;3.37;;;15.10;87.10;;;;;;899495;155;27499;-76
2023/07/01 00:43:06;;;;;;;4.27;3.97;;;15.00;87.50;;;;;;899154;158;27492;-76
2023/07/01 00:45:33;;;;;;;4.70;4.20;;;15.00;88.10;;;;;;898726;155;27391;-76
2023/07/01 00:47:59;;;;;;;4.57;4.17;;;15.00;88.40;;;;;;898656;155;27474;-76
2023/07/01 00:50:26;;;;;;;4.03;3.73;;;15.00;88.60;;;;;;899898;155;27433;-76
2023/07/01 00:52:53;;;;;;;4.97;4.03;;;14.90;88.90;;;;;;899979;155;27419;-76
2023/07/01 00:55:19;;;;;;;4.13;3.73;;;14.90;89.20;;;;;;899513;155;27390;-76
2023/07/01 00:57:46;;;;;;;4.37;4.00;;;14.90;89.60;;;;;;897378;155;27979;-76
2023/07/01 01:00:12;;;;;;;4.00;3.70;;;14.80;90.00;;;;;;899685;155;27444;-76
2023/07/01 01:02:53;;;;;;;6.40;4.83;;;14.80;90.10;;;;;;900053;155;27404;-76
2023/07/01 01:05:15;;;;;;;3.50;3.20;;;14.80;90.30;;;;;;897628;155;27432;-77
2023/07/01 01:07:42;;;;;;;3.67;3.37;;;14.70;90.40;;;;;;896734;155;27488;-76
2023/07/01 01:10:07;;;;;;;6.30;3.63;;;14.70;90.60;;;;;;897821;155;27543;-77
2023/07/01 01:12:34;;;;;;;4.00;3.70;;;14.70;90.70;;;;;;898901;155;27443;-77
2023/07/01 01:15:00;;;;;;;3.80;3.50;;;14.70;90.80;;;;;;898597;155;27402;-76
2023/07/01 01:17:27;;;;;;;4.57;4.17;;;14.70;90.90;;;;;;899121;155;27382;-77
2023/07/01 01:19:53;;;;;;;4.70;4.30;;;14.60;91.10;;;;;;898666;154;27396;-76
2023/07/01 01:22:23;;;;;;;4.57;4.17;;;14.60;91.20;;;;;;899384;155;27430;-76
2023/07/01 01:24:50;;;;;;;4.77;4.37;;;14.60;91.50;;;;;;899093;155;27393;-76
2023/07/01 01:27:16;;;;;;;4.53;4.13;;;14.60;91.70;;;;;;898104;155;27393;-76
2023/07/01 01:29:43;;;;;;;4.87;4.47;;;14.60;91.80;;;;;;898846;155;27529;-77
2023/07/01 01:32:09;;;;;;;4.60;4.20;;;14.50;91.90;;;;;;899094;155;27407;-77
2023/07/01 01:34:36;;;;;;;5.07;4.10;;;14.50;92.20;;;;;;899682;155;27422;-76
2023/07/01 01:37:03;;;;;;;3.77;3.47;;;14.50;92.30;;;;;;898577;155;27386;-77
2023/07/01 01:39:29;;;;;;;5.47;4.17;;;14.50;92.50;;;;;;898656;155;27498;-76
2023/07/01 01:41:58;;;;;;;4.80;4.30;;;14.50;92.50;;;;;;897615;155;27392;-76
2023/07/01 01:44:27;;;;;;;4.50;4.10;;;14.50;92.70;;;;;;897696;155;27434;-77
2023/07/01 01:46:52;;;;;;;5.03;4.20;;;14.50;92.70;;;;;;898837;155;27555;-76
2023/07/01 01:49:18;;;;;;;5.00;4.50;;;14.50;92.90;;;;;;900068;155;27486;-77
2023/07/01 01:51:45;;;;;;;4.37;3.97;;;14.40;93.10;;;;;;897126;157;27362;-76
2023/07/01 01:54:11;;;;;;;5.17;4.30;;;14.40;93.20;;;;;;898939;155;27436;-77
2023/07/01 01:56:38;;;;;;;4.60;4.20;;;14.40;93.30;;;;;;898335;155;27505;-77
2023/07/01 01:59:05;;;;;;;4.40;4.00;;;14.40;93.50;;;;;;899669;155;27362;-76
2023/07/01 02:01:31;;;;;;;5.20;3.97;;;14.30;93.60;;;;;;898306;155;27824;-77
2023/07/01 02:03:58;;;;;;;4.30;4.00;;;14.40;93.70;;;;;;898813;155;27463;-77
2023/07/01 02:06:24;;;;;;;4.87;4.37;;;14.30;93.80;;;;;;900101;155;27444;-76
2023/07/01 02:08:51;;;;;;;4.73;4.27;;;14.30;93.90;;;;;;900648;155;28861;-76
2023/07/01 02:11:17;;;;;;;4.30;3.90;;;14.30;94.10;;;;;;898233;155;27500;-77
2023/07/01 02:13:44;;;;;;;4.50;4.10;;;14.30;94.20;;;;;;897019;155;27486;-74
2023/07/01 02:16:11;;;;;;;4.60;4.20;;;14.30;94.30;;;;;;899334;155;27498;-74
2023/07/01 02:18:37;;;;;;;4.53;4.13;;;14.30;94.60;;;;;;899033;155;27348;-74
2023/07/01 02:21:04;;;;;;;5.23;4.80;;;14.20;94.90;;;;;;899592;155;27490;-74
2023/07/01 02:23:30;;;;;;;5.93;4.27;;;14.20;95.10;;;;;;899409;155;27400;-75
2023/07/01 02:25:57;;;;;;;4.87;4.47;;;14.20;95.20;;;;;;897115;155;27437;-74
2023/07/01 02:28:24;;;;;;;4.90;4.43;;;14.20;95.30;;;;;;900524;155;27435;-74
2023/07/01 02:30:50;;;;;;;4.80;4.37;;;14.20;95.50;;;;;;900112;155;27343;-75
2023/07/01 02:33:19;;;;;;;5.07;4.57;;;14.20;95.60;;;;;;899328;155;27370;-72
2023/07/01 02:35:43;;;;;;;4.67;4.27;;;14.20;95.90;;;;;;899202;155;27522;-72
2023/07/01 02:38:10;;;;;;;5.00;4.60;;;14.20;96.10;;;;;;900533;155;27406;-74
2023/07/01 02:40:36;;;;;;;5.10;4.60;;;14.30;96.30;;;;;;900105;155;27483;-74
2023/07/01 02:43:03;;;;;;;4.97;4.57;;;14.30;96.40;;;;;;897756;155;27328;-73
2023/07/01 02:45:30;;;;;;;4.80;4.50;;;14.30;96.50;;;;;;899667;155;27540;-73
2023/07/01 02:47:56;;;;;;;4.70;4.30;;;14.30;96.70;;;;;;898799;155;27401;-73
2023/07/01 02:50:23;;;;;;;6.47;5.03;;;14.30;96.70;;;;;;897952;155;27388;-73
2023/07/01 02:52:49;;;;;;;5.37;4.83;;;14.30;96.70;;;;;;900269;155;27362;-73
2023/07/01 02:55:16;;;;;;;5.23;4.73;;;14.30;96.80;;;;;;898820;155;27496;-73
2023/07/01 02:57:43;;;;;;;9.30;4.53;;;14.30;96.80;;;;;;900208;155;27458;-73
2023/07/01 03:00:11;;;;;;;6.93;4.80;;;14.30;97.00;;;;;;898405;155;27480;-73
2023/07/01 03:02:36;;;;;;;4.47;4.17;;;14.30;97.10;;;;;;897922;155;27388;-73
2023/07/01 03:05:04;;;;;;;5.53;4.47;;;14.30;97.10;;;;;;898991;156;27379;-73
2023/07/01 03:07:29;;;;;;;5.47;4.80;;;14.30;97.10;;;;;;899430;155;27345;-73
2023/07/01 03:09:56;;;;;;;5.10;4.70;;;14.30;97.30;;;;;;900678;155;27482;-73
2023/07/01 03:12:22;;;;;;;4.70;4.27;;;14.30;97.30;;;;;;898382;155;27394;-73
2023/07/01 03:14:49;;;;;;;5.03;4.63;;;14.30;97.40;;;;;;899753;155;27393;-73
2023/07/01 03:17:15;;;;;;;5.70;4.47;;;14.30;97.50;;;;;;901088;155;27327;-73
2023/07/01 03:19:43;;;;;;;4.93;4.43;;;14.30;97.50;;;;;;900365;155;27362;-73
2023/07/01 03:22:09;;;;;;;5.00;4.60;;;14.30;97.70;;;;;;897762;155;27487;-73
2023/07/01 03:24:35;;;;;;;5.30;4.80;;;14.30;97.80;;;;;;898262;155;27485;-73
2023/07/01 03:27:04;;;;;;;5.10;4.70;;;14.30;97.90;;;;;;897900;155;27354;-73
2023/07/01 03:29:31;;;;;;;4.87;4.53;;;14.30;98.10;;;;;;897965;155;27423;-73
2023/07/01 03:31:57;;;;;;;4.77;4.37;;;14.30;98.10;;;;;;898778;155;27497;-73
2023/07/01 03:34:25;;;;;;;4.80;4.30;;;14.40;98.30;;;;;;899273;155;27424;-73
2023/07/01 03:36:51;;;;;;;4.40;4.10;;;14.40;98.30;;;;;;895846;155;27852;-73
2023/07/01 03:39:17;;;;;;;4.47;4.07;;;14.40;98.30;;;;;;897881;155;27470;-73
2023/07/01 03:41:44;;;;;;;4.77;4.37;;;14.40;98.20;;;;;;899940;155;27389;-73
2023/07/01 03:44:11;;;;;;;5.20;4.80;;;14.40;98.30;;;;;;899508;155;27482;-73
2023/07/01 03:46:37;;;;;;;4.60;4.20;;;14.40;98.30;;;;;;899699;155;27311;-73
2023/07/01 03:49:04;;;;;;;5.03;4.53;;;14.50;98.50;;;;;;899192;155;27922;-73
2023/07/01 03:51:32;;;;;;;4.93;4.60;;;14.50;98.60;;;;;;898770;155;27517;-73
2023/07/01 03:53:57;;;;;;;6.47;4.53;;;14.50;98.70;;;;;;897856;155;27464;-73
2023/07/01 03:56:23;;;;;;;4.43;4.07;;;14.50;98.90;;;;;;900087;155;27366;-73
2023/07/01 03:58:51;;;;;;;5.03;4.57;;;14.50;99.10;;;;;;900121;155;27628;-73
2023/07/01 04:01:16;;;;;;;5.30;4.80;;;14.60;99.40;;;;;;897808;155;27486;-73
2023/07/01 04:03:43;;;;;;;4.57;4.17;;;14.60;99.60;;;;;;899045;155;27412;-73
2023/07/01 04:06:10;;;;;;;4.80;4.40;;;14.70;99.70;;;;;;898150;155;27478;-73
2023/07/01 04:08:36;;;;;;;4.90;4.50;;;14.70;99.90;;;;;;898532;155;27392;-73
2023/07/01 04:11:03;;;;;;;5.20;4.70;;;14.80;99.90;;;;;;899028;156;27414;-73
2023/07/01 04:13:29;;;;;;;4.90;4.30;;;14.90;99.90;;;;;;900733;155;27401;-73
2023/07/01 04:15:56;;;;;;;4.70;4.30;;;15.00;99.90;;;;;;880651;158;27378;-73
2023/07/01 04:18:23;;;;;;;4.63;4.20;;;15.10;99.90;;;;;;900290;155;27445;-73
2023/07/01 04:20:49;;;;;;;4.80;4.40;;;15.20;99.90;;;;;;899998;155;27368;-73
2023/07/01 04:23:16;;;;;;;5.13;4.60;;;15.30;99.90;;;;;;898054;155;27394;-73
2023/07/01 04:25:43;;;;;;;4.60;4.20;;;15.40;99.90;;;;;;899355;155;27498;-73
2023/07/01 04:28:09;;;;;;;5.33;4.50;;;15.50;99.90;;;;;;898544;155;27384;-73
2023/07/01 04:30:36;;;;;;;4.60;4.20;;;15.60;99.90;;;;;;896174;155;27450;-73
2023/07/01 04:33:02;;;;;;;4.60;4.30;;;15.80;99.90;;;;;;898554;155;27394;-73
2023/07/01 04:35:29;;;;;;;4.87;4.37;;;15.80;99.90;;;;;;898716;155;27508;-73
2023/07/01 04:37:55;;;;;;;4.83;4.43;;;16.00;99.80;;;;;;899424;155;27319;-73
2023/07/01 04:40:22;;;;;;;5.00;4.60;;;16.00;99.60;;;;;;900549;155;27391;-73
2023/07/01 04:42:51;;;;;;;4.50;4.10;;;16.10;99.60;;;;;;899664;155;27468;-73
2023/07/01 04:45:21;;;;;;;5.10;4.70;;;16.20;99.50;;;;;;899275;155;27391;-73
2023/07/01 04:47:50;;;;;;;5.05;4.65;;;16.30;99.30;;;;;;898058;155;27412;-73
2023/07/01 04:50:16;;;;;;;4.78;4.42;;;16.40;99.20;;;;;;897874;155;27400;-73
2023/07/01 04:52:43;;;;;;;4.92;4.53;;;16.50;99.10;;;;;;896629;155;27398;-73
2023/07/01 04:55:09;;;;;;;4.33;4.03;;;16.60;99.10;;;;;;899230;155;27394;-73
2023/07/01 04:57:36;;;;;;;4.63;4.23;;;16.70;99.10;;;;;;897959;155;27452;-73
2023/07/01 05:00:05;;;;;;;4.83;4.33;;;16.80;99.10;;;;;;898234;155;27396;-73
2023/07/01 05:02:29;;;;;;;5.03;4.50;;;16.90;99.10;;;;;;898185;158;27398;-73
2023/07/01 05:04:56;;;;;;;4.97;4.47;;;17.00;99.10;;;;;;898717;155;27498;-73
2023/07/01 05:07:22;;;;;;;3.95;3.65;;;17.10;99.00;;;;;;900239;155;27409;-73
2023/07/01 05:09:49;;;;;;;4.42;4.03;;;17.20;98.90;;;;;;898839;155;27359;-73
2023/07/01 05:12:15;;;;;;;4.33;3.92;;;17.30;98.90;;;;;;899834;155;27540;-73
2023/07/01 05:14:42;;;;;;;3.92;3.62;;;17.50;98.90;;;;;;897291;155;27513;-73
2023/07/01 05:17:09;;;;;;;4.78;4.37;;;17.60;98.90;;;;;;899824;155;27368;-73
2023/07/01 05:19:35;;;;;;;4.10;3.80;;;17.70;98.70;;;;;;901249;155;27394;-73
2023/07/01 05:22:02;;;;;;;4.22;3.83;;;17.90;98.70;;;;;;898413;155;27396;-73
2023/07/01 05:24:28;;;;;;;4.67;4.25;;;18.10;98.60;;;;;;900198;155;27429;-73
2023/07/01 05:26:55;;;;;;;4.55;4.15;;;18.20;98.40;;;;;;898694;155;27511;-73
2023/07/01 05:29:22;;;;;;;4.60;4.30;;;18.40;98.20;;;;;;897926;155;27383;-73
2023/07/01 05:31:52;;;;;;;3.92;3.62;;;18.60;97.90;;;;;;899765;155;27449;-73
2023/07/01 05:34:17;;;;;;;3.98;3.67;;;18.80;97.40;;;;;;898612;155;27531;-73
2023/07/01 05:36:44;;;;;;;4.05;3.72;;;19.00;97.00;;;;;;897034;156;27468;-73
2023/07/01 05:39:10;;;;;;;3.95;3.65;;;19.20;96.30;;;;;;900259;155;27284;-73
2023/07/01 05:41:37;;;;;;;3.87;3.58;;;19.40;96.00;;;;;;898377;155;27412;-73
2023/07/01 05:44:04;;;;;;;7.28;3.70;;;19.60;96.40;;;;;;899629;155;27505;-73
2023/07/01 05:46:30;;;;;;;3.47;3.17;;;19.90;98.50;;;;;;898304;155;27420;-73
2023/07/01 05:48:57;;;;;;;4.17;3.87;;;20.40;99.90;;;;;;899772;155;27383;-73
2023/07/01 05:51:23;;;;;;;3.20;2.90;;;21.10;99.90;;;;;;898621;155;27351;-73
2023/07/01 05:53:50;;;;;;;3.20;2.90;;;22.00;99.90;;;;;;897134;155;27490;-73
2023/07/01 05:56:17;;;;;;;2.95;2.75;;;22.90;99.90;;;;;;899906;155;27521;-74
2023/07/01 05:58:43;;;;;;;2.98;2.40;;;23.90;98.80;;;;;;900194;155;27464;-73
2023/07/01 06:01:10;;;;;;;2.40;2.30;;;25.00;96.40;;;;;;898564;155;27404;-74
2023/07/01 06:03:36;;;;;;;2.65;2.45;;;26.10;92.70;;;;;;899824;155;27375;-74
2023/07/01 06:06:03;;;;;;;3.62;2.52;;;27.10;90.00;;;;;;899495;155;27463;-74
2023/07/01 06:08:30;;;;;;;2.40;2.20;;;28.10;85.00;;;;;;898080;155;27824;-74
2023/07/01 06:10:56;;;;;;;4.05;2.60;;;29.00;80.10;;;;;;898917;155;27370;-74
2023/07/01 06:13:23;;;;;;;2.45;2.25;;;29.90;76.60;;;;;;899970;155;27437;-74
2023/07/01 06:15:49;;;;;;;2.37;2.27;;;30.80;73.90;;;;;;898716;155;27424;-74
2023/07/01 06:18:16;;;;;;;2.45;2.20;;;31.70;70.80;;;;;;897414;155;27427;-74
2023/07/01 06:20:43;;;;;;;1.72;1.62;;;32.50;67.80;;;;;;899456;155;26280;-74
2023/07/01 06:23:09;;;;;;;2.72;2.10;;;33.20;65.20;;;;;;897419;155;27375;-74
2023/07/01 06:25:36;;;;;;;2.98;2.00;;;33.90;62.60;;;;;;898031;155;26304;-74
2023/07/01 06:28:02;;;;;;;1.95;1.85;;;34.50;60.40;;;;;;897486;155;26333;-74
2023/07/01 06:30:29;;;;;;;2.98;1.98;;;35.10;58.80;;;;;;899527;155;26312;-74
2023/07/01 06:32:55;;;;;;;2.12;1.65;;;35.60;57.20;;;;;;899377;155;26309;-74
2023/07/01 06:35:22;;;;;;;2.95;2.10;;;36.10;55.50;;;;;;898895;155;26337;-74
2023/07/01 06:37:49;;;;;;;1.82;1.67;;;36.40;54.20;;;;;;898594;155;26356;-74
2023/07/01 06:40:15;;;;;;;2.52;2.00;;;36.70;52.80;;;;;;899816;155;26658;-74
2023/07/01 06:42:42;;;;;;;2.72;1.82;;;36.80;51.90;;;;;;898826;155;26312;-74
2023/07/01 06:45:08;;;;;;;2.00;1.80;;;37.00;51.50;;;;;;898378;154;26930;-74
2023/07/01 06:47:35;;;;;;;1.98;1.77;;;37.10;51.00;;;;;;899410;155;26394;-74
2023/07/01 06:50:02;;;;;;;4.90;1.72;;;37.30;50.60;;;;;;898329;155;26297;-74
2023/07/01 06:52:28;;;;;;;3.50;1.87;;;37.50;49.40;;;;;;899365;155;27394;-74
2023/07/01 06:54:55;;;;;;;8.63;2.10;;;37.60;48.80;;;;;;900173;155;26257;-74
2023/07/01 06:57:21;;;;;;;2.17;1.80;;;37.70;47.80;;;;;;898551;155;26284;-74
2023/07/01 06:59:48;;;;;;;1.98;1.40;;;37.70;47.00;;;;;;899283;155;26394;-74
2023/07/01 07:02:14;;;;;;;1.95;1.75;;;37.60;46.40;;;;;;897602;155;26382;-74
2023/07/01 07:04:42;;;;;;;6.95;1.50;;;37.50;46.00;;;;;;898784;155;26213;-74
2023/07/01 07:07:08;;;;;;;2.52;1.82;;;37.40;45.50;;;;;;900729;155;26332;-74
2023/07/01 07:09:34;;;;;;;2.02;1.82;;;37.40;45.30;;;;;;898659;155;26426;-74
2023/07/01 07:12:01;;;;;;;2.37;1.60;;;37.20;45.10;;;;;;897948;155;26313;-74
2023/07/01 07:14:27;;;;;;;4.28;1.90;;;37.20;44.90;;;;;;899011;155;26290;-74
2023/07/01 07:16:54;;;;;;;2.20;1.82;;;37.20;44.40;;;;;;898193;155;26306;-74
2023/07/01 07:19:21;;;;;;;3.27;1.82;;;37.30;44.10;;;;;;900425;155;27385;-74
2023/07/01 07:21:47;;;;;;;2.30;1.85;;;37.20;43.50;;;;;;899589;155;26385;-74
2023/07/01 07:24:14;;;;;;;4.28;1.80;;;37.20;43.00;;;;;;899605;155;26264;-74
2023/07/01 07:26:42;;;;;;;3.52;1.72;;;37.10;42.70;;;;;;898409;158;26377;-74
2023/07/01 07:29:07;;;;;;;2.92;1.80;;;37.10;42.90;;;;;;899869;155;26242;-74
2023/07/01 07:31:34;;;;;;;4.42;1.72;;;37.00;42.50;;;;;;898999;155;26333;-74
2023/07/01 07:34:01;;;;;;;3.40;1.95;;;37.00;42.20;;;;;;898840;155;26321;-74
2023/07/01 07:36:27;;;;;;;3.05;1.40;;;36.90;42.00;;;;;;898650;155;26379;-74
2023/07/01 07:38:53;;;;;;;1.65;1.55;;;36.90;41.90;;;;;;899363;155;26280;-74
2023/07/01 07:41:20;;;;;;;3.30;1.67;;;36.90;42.00;;;;;;899823;155;26430;-74
2023/07/01 07:43:47;;;;;;;1.90;1.60;;;37.10;42.50;;;;;;898897;155;26323;-73
2023/07/01 07:46:13;;;;;;;1.77;1.57;;;37.30;42.10;;;;;;899800;155;26372;-73
2023/07/01 07:48:40;;;;;;;4.30;2.00;;;37.50;41.40;;;;;;899641;155;26209;-73
2023/07/01 07:51:06;;;;;;;3.17;1.77;;;37.80;41.10;;;;;;898657;155;26374;-73
2023/07/01 07:53:33;;;;;;;2.67;1.52;;;38.00;40.50;;;;;;898268;155;27435;-73
2023/07/01 07:55:59;;;;;;;2.42;1.67;;;38.20;40.20;;;;;;899197;155;26357;-73
2023/07/01 07:58:26;;;;;;;3.67;1.55;;;38.50;40.00;;;;;;899265;155;26689;-73
2023/07/01 08:00:53;;;;;;;3.37;1.65;;;38.70;39.30;;;;;;900867;155;26295;-74
2023/07/01 08:03:19;;;;;;;3.83;1.70;;;38.90;39.00;;;;;;896172;157;26304;-74
2023/07/01 08:05:46;;;;;;;1.62;1.52;;;39.00;38.40;;;;;;898295;155;27548;-74
2023/07/01 08:08:12;;;;;;;2.37;1.50;;;39.10;38.00;;;;;;898675;155;26819;-74
2023/07/01 08:10:44;;;;;;;5.05;1.57;;;39.10;37.20;;;;;;898956;155;26289;-73
2023/07/01 08:13:06;;;;;;;4.03;1.47;;;39.10;37.00;;;;;;897320;155;26249;-74
2023/07/01 08:15:32;;;;;;;1.92;1.60;;;39.10;36.90;;;;;;897904;155;26328;-73
2023/07/01 08:17:59;;;;;;;2.27;1.52;;;39.10;36.70;;;;;;897885;155;26410;-73
2023/07/01 08:20:25;;;;;;;1.98;1.57;;;39.10;36.60;;;;;;898814;155;26414;-74
2023/07/01 08:22:52;;;;;;;3.22;1.80;;;39.20;36.40;;;;;;898834;155;26366;-74
2023/07/01 08:25:19;;;;;;;3.08;1.77;;;39.30;36.40;;;;;;900106;155;26402;-73
2023/07/01 08:27:45;;;;;;;1.55;1.40;;;39.40;36.10;;;;;;899067;155;26340;-73
2023/07/01 08:30:12;;;;;;;2.92;1.47;;;39.40;35.90;;;;;;900045;155;26206;-73
2023/07/01 08:32:38;;;;;;;2.45;1.67;;;39.40;35.60;;;;;;898006;155;26413;-73
2023/07/01 08:35:05;;;;;;;1.75;1.47;;;39.40;35.40;;;;;;898647;155;26336;-73
2023/07/01 08:37:31;;;;;;;1.50;1.40;;;39.40;34.90;;;;;;897257;157;26348;-73
2023/07/01 08:39:58;;;;;;;2.92;1.80;;;39.40;34.90;;;;;;899320;155;26269;-73
2023/07/01 08:42:25;;;;;;;1.77;1.62;;;39.40;34.10;;;;;;898124;157;26213;-73
2023/07/01 08:44:51;;;;;;;1.60;1.50;;;39.40;34.60;;;;;;897233;155;26302;-73
2023/07/01 08:47:18;;;;;;;2.98;1.82;;;39.30;33.90;;;;;;898280;155;26383;-73
2023/07/01 08:49:44;;;;;;;1.57;1.47;;;39.30;33.90;;;;;;899967;155;26475;-74
2023/07/01 08:52:11;;;;;;;1.67;1.57;;;39.40;33.90;;;;;;897061;154;26285;-74
2023/07/01 08:54:38;;;;;;;2.95;1.57;;;39.50;33.90;;;;;;898059;155;26275;-74
2023/07/01 08:57:04;;;;;;;2.00;1.60;;;39.70;34.10;;;;;;897792;155;26385;-73
2023/07/01 08:59:31;;;;;;;1.40;1.30;;;40.00;33.80;;;;;;897523;155;26396;-74
2023/07/01 09:02:01;;;;;;;5.10;1.80;;;40.20;33.40;;;;;;898421;155;26321;-74
2023/07/01 09:04:27;;;;;;;1.57;1.40;;;40.30;32.80;;;;;;897391;155;26229;-73
2023/07/01 09:06:53;;;;;;;1.70;1.60;;;40.30;32.10;;;;;;900441;155;26684;-72
2023/07/01 09:09:20;;;;;;;2.35;1.90;;;40.10;31.50;;;;;;899775;155;26340;-73
2023/07/01 09:11:47;;;;;;;2.37;1.45;;;39.60;30.70;;;;;;898679;155;26273;-73
2023/07/01 09:14:13;;;;;;;2.10;1.90;;;39.00;31.40;;;;;;898090;155;26302;-73
2023/07/01 09:16:39;;;;;;;3.50;1.40;;;38.40;31.50;;;;;;900114;155;27406;-73
2023/07/01 09:19:06;;;;;;;1.70;1.60;;;37.80;31.90;;;;;;898698;155;26320;-73
2023/07/01 09:21:33;;;;;;;1.80;1.30;;;37.20;32.20;;;;;;899641;155;27526;-73
2023/07/01 09:24:02;;;;;;;1.37;1.22;;;36.50;32.50;;;;;;901137;155;27333;-73
2023/07/01 09:26:30;;;;;;;1.35;1.25;;;35.90;32.80;;;;;;899149;156;27423;-73
2023/07/01 09:28:55;;;;;;;2.72;1.30;;;35.40;33.30;;;;;;899510;155;27391;-73
2023/07/01 09:31:22;;;;;;;1.40;1.30;;;34.80;33.50;;;;;;897421;155;27403;-73
2023/07/01 09:34:03;;;;;;;1.60;1.10;;;34.30;34.20;;;;;;896871;155;27421;-73
2023/07/01 09:36:30;;;;;;;5.47;1.30;;;33.80;34.50;;;;;;899693;155;27490;-73
2023/07/01 09:38:56;;;;;;;1.30;1.20;;;33.30;34.80;;;;;;899639;155;27496;-73
2023/07/01 09:41:24;;;;;;;1.72;1.30;;;32.90;35.20;;;;;;898197;155;27408;-73
2023/07/01 09:43:50;;;;;;;1.27;1.20;;;32.50;35.40;;;;;;898504;155;27848;-73
2023/07/01 09:46:16;;;;;;;1.30;1.20;;;32.00;35.70;;;;;;899029;155;27482;-73
2023/07/01 09:48:52;;;;;;;1.60;1.20;;;31.60;36.20;;;;;;898631;155;27450;-73
2023/07/01 09:51:18;;;;;;;1.30;1.20;;;31.20;36.60;;;;;;897374;155;27533;-73
2023/07/01 09:53:45;;;;;;;1.30;1.20;;;30.80;37.00;;;;;;899393;155;27379;-73
2023/07/01 09:56:11;;;;;;;1.17;1.12;;;30.40;37.30;;;;;;896376;155;27511;-73
2023/07/01 09:58:38;;;;;;;3.30;1.20;;;30.10;37.80;;;;;;898608;155;27370;-73
2023/07/01 10:01:05;;;;;;;1.60;1.12;;;29.80;38.20;;;;;;899286;155;27408;-73
2023/07/01 10:03:32;;;;;;;3.72;1.20;;;29.50;38.50;;;;;;898224;155;27428;-73
2023/07/01 10:05:58;;;;;;;1.37;1.20;;;29.30;38.90;;;;;;896576;155;27527;-73
2023/07/01 10:08:24;;;;;;;1.85;1.22;;;29.10;39.30;;;;;;899690;155;27456;-73
2023/07/01 10:11:09;;;;;;;3.60;1.40;;;28.90;39.60;;;;;;898508;155;27445;-73
2023/07/01 10:13:45;;;;;;;1.72;1.10;;;28.80;39.90;;;;;;898111;155;27397;-73
2023/07/01 10:16:12;;;;;;;1.70;1.40;;;28.60;39.80;;;;;;899414;154;27838;-73
2023/07/01 10:18:38;;;;;;;5.42;1.20;;;28.40;40.30;;;;;;898129;155;27466;-73
2023/07/01 10:21:23;;;;;;;3.95;1.50;;;28.30;40.60;;;;;;899479;155;27392;-73
2023/07/01 10:23:50;;;;;;;1.77;1.60;;;28.20;40.70;;;;;;899983;155;27498;-73
2023/07/01 10:26:46;;;;;;;2.12;1.52;;;28.00;40.80;;;;;;896192;155;27392;-70
2023/07/01 10:29:29;;;;;;;2.05;1.60;;;27.80;41.20;;;;;;896256;155;27418;-71
2023/07/01 10:32:11;;;;;;;1.50;1.30;;;27.70;41.40;;;;;;898103;155;27505;-71
2023/07/01 10:34:53;;;;;;;1.25;1.12;;;27.60;41.70;;;;;;898123;155;27558;-70
2023/07/01 10:37:22;;;;;;;2.30;1.30;;;27.50;42.00;;;;;;898578;158;27419;-70
2023/07/01 10:39:49;;;;;;;3.50;1.67;;;27.40;42.30;;;;;;896828;154;27410;-70
2023/07/01 10:42:34;;;;;;;1.20;1.00;;;27.40;42.40;;;;;;899305;155;27399;-71
2023/07/01 10:45:12;;;;;;;1.57;1.35;;;27.30;42.60;;;;;;898327;154;27414;-70
2023/07/01 10:47:44;;;;;;;1.30;0.93;;;27.20;42.60;;;;;;900234;155;27460;-71
2023/07/01 10:50:10;;;;;;;1.62;0.95;;;27.10;42.70;;;;;;899338;155;27395;-70
2023/07/01 10:53:02;;;;;;;1.17;1.05;;;27.00;43.00;;;;;;897783;155;27413;-70
2023/07/01 10:55:38;;;;;;;1.67;0.80;;;26.90;43.20;;;;;;898750;155;27504;-70
2023/07/01 10:58:21;;;;;;;1.20;1.00;;;26.90;43.30;;;;;;900249;155;27372;-70
2023/07/01 11:00:57;;;;;;;2.20;1.02;;;26.80;43.60;;;;;;898414;155;27382;-70
2023/07/01 11:03:36;;;;;;;1.25;0.65;;;26.80;43.80;;;;;;896091;155;27417;-70
2023/07/01 11:06:10;;;;;;;0.82;0.78;;;26.80;44.00;;;;;;898352;155;27411;-70
2023/07/01 11:08:52;;;;;;;1.57;1.05;;;26.70;44.10;;;;;;899885;155;27359;-70
2023/07/01 11:11:25;;;;;;;1.25;0.93;;;26.70;44.30;;;;;;898421;155;27511;-70
2023/07/01 11:14:03;;;;;;;3.50;1.20;;;26.60;44.70;;;;;;898288;155;27484;-71
2023/07/01 11:16:29;;;;;;;0.93;0.88;;;26.60;45.10;;;;;;898665;155;27457;-70
2023/07/01 11:18:56;;;;;;;2.15;1.25;;;26.50;45.30;;;;;;898586;155;27538;-70
2023/07/01 11:21:22;;;;;;;1.75;0.80;;;26.50;45.60;;;;;;897925;155;28034;-70
2023/07/01 11:23:58;;;;;;;1.72;1.10;;;26.40;45.90;;;;;;897551;155;27493;-70
2023/07/01 11:26:27;;;;;;;1.87;1.17;;;26.40;46.30;;;;;;898141;155;27387;-70
2023/07/01 11:28:54;;;;;;;2.35;1.15;;;26.30;46.50;;;;;;899128;155;27321;-71
2023/07/01 11:31:24;;;;;;;0.80;0.80;;;26.20;46.90;;;;;;898733;155;27483;-70
2023/07/01 11:33:50;;;;;;;1.00;0.80;;;26.10;47.40;;;;;;898193;155;27511;-70
2023/07/01 11:36:16;;;;;;;0.78;0.78;;;26.00;47.90;;;;;;898140;155;27491;-70
2023/07/01 11:38:44;;;;;;;2.45;1.00;;;25.90;48.30;;;;;;899012;155;27376;-70
2023/07/01 11:41:09;;;;;;;0.80;0.80;;;25.80;48.70;;;;;;897972;155;27358;-71
2023/07/01 11:43:36;;;;;;;1.00;1.00;;;25.70;48.90;;;;;;900346;155;27488;-71
2023/07/01 11:46:03;;;;;;;0.90;0.90;;;25.60;49.20;;;;;;899069;155;27406;-71
2023/07/01 11:48:30;;;;;;;1.60;0.80;;;25.60;49.60;;;;;;898418;155;27367;-71
2023/07/01 11:50:56;;;;;;;0.95;0.80;;;25.50;49.90;;;;;;897125;155;27357;-70
2023/07/01 11:53:22;;;;;;;1.15;0.90;;;25.40;50.30;;;;;;898288;155;27494;-71
2023/07/01 11:55:49;;;;;;;1.05;1.05;;;25.30;50.60;;;;;;898590;155;27428;-70
2023/07/01 11:58:35;;;;;;;0.90;0.90;;;25.30;51.20;;;;;;897999;155;27462;-70
2023/07/01 12:01:00;;;;;;;1.10;1.00;;;25.30;51.60;;;;;;900314;155;27411;-71
2023/07/01 12:03:33;;;;;;;1.35;1.10;;;25.30;51.40;;;;;;897663;155;27465;-70
2023/07/01 12:05:59;;;;;;;1.20;1.20;;;25.30;51.40;;;;;;899653;155;27388;-70
2023/07/01 12:08:25;;;;;;;1.35;1.00;;;25.30;51.20;;;;;;897868;155;27409;-70
2023/07/01 12:10:52;;;;;;;2.52;0.98;;;25.30;51.20;;;;;;900914;155;27303;-70
2023/07/01 12:13:30;;;;;;;1.65;1.10;;;25.40;51.40;;;;;;897662;157;27416;-70
2023/07/01 12:15:57;;;;;;;1.12;0.90;;;25.30;51.80;;;;;;899142;157;27471;-70
2023/07/01 12:18:29;;;;;;;1.30;1.10;;;25.30;51.90;;;;;;899243;156;27372;-71
2023/07/01 12:20:55;;;;;;;0.95;0.93;;;25.40;52.20;;;;;;897810;155;27399;-71
2023/07/01 12:23:20;;;;;;;1.17;1.00;;;25.40;52.30;;;;;;898245;155;27441;-70
2023/07/01 12:25:46;;;;;;;0.90;0.90;;;25.40;52.60;;;;;;898666;155;27413;-70
2023/07/01 12:28:13;;;;;;;2.45;1.32;;;25.40;52.80;;;;;;896689;157;27507;-70
2023/07/01 12:30:40;;;;;;;1.15;1.15;;;25.50;52.90;;;;;;899147;155;27363;-70
2023/07/01 12:33:06;;;;;;;1.35;1.25;;;25.70;53.10;;;;;;897629;155;27397;-70
2023/07/01 12:35:33;;;;;;;1.47;1.10;;;25.80;53.10;;;;;;900203;155;27403;-70
2023/07/01 12:37:59;;;;;;;1.07;1.00;;;26.00;53.30;;;;;;897810;157;27487;-70
2023/07/01 12:40:26;;;;;;;1.50;1.07;;;26.20;53.20;;;;;;896423;157;27388;-70
2023/07/01 12:42:52;;;;;;;1.75;0.88;;;26.40;52.80;;;;;;900220;155;27312;-70
2023/07/01 12:45:19;;;;;;;2.00;0.90;;;26.50;52.30;;;;;;897931;155;27384;-70
2023/07/01 12:47:45;;;;;;;1.45;1.10;;;26.70;52.00;;;;;;899708;155;27497;-71
2023/07/01 12:50:12;;;;;;;1.15;1.00;;;26.80;51.60;;;;;;897283;155;27474;-70